Time;durP1;ratioP1;P1;durP2;ratioP2;P2;SDS_P1;SDS_P2;PMS_P1;PMS_P2;Temp;Humidity;BMP_temperature;BMP_pressure;BME280_temperature;BME280_humidity;BME280_pressure;Samples;Min_cycle;Max_cycle;Signal;HPM_P1;HPM_P2
2023/06/28 00:00:02;;;;;;;9.52;3.45;;;;;;;21.88;54.31;101459.81;5069488;28;20053;-69
2023/06/28 00:02:35;;;;;;;9.18;2.72;;;;;;;22.71;52.47;101455.28;5058828;28;20049;-67
2023/06/28 00:05:04;;;;;;;11.90;3.20;;;;;;;22.74;51.83;101462.94;5065728;28;20064;-67
2023/06/28 00:07:32;;;;;;;10.00;3.65;;;;;;;22.93;51.19;101454.41;5037347;28;20045;-67
2023/06/28 00:09:59;;;;;;;13.07;3.05;;;;;;;22.59;50.44;101452.69;5054549;28;20416;-69
2023/06/28 00:12:28;;;;;;;7.93;3.03;;;;;;;22.03;53.59;101458.94;5055348;28;20049;-67
2023/06/28 00:14:56;;;;;;;9.23;3.25;;;;;;;22.04;51.82;101454.91;5070519;28;20045;-67
2023/06/28 00:17:27;;;;;;;12.38;2.97;;;;;;;22.07;52.58;101447.75;5057190;28;20056;-68
2023/06/28 00:19:55;;;;;;;11.07;2.75;;;;;;;21.13;54.03;101451.03;5069398;28;20059;-68
2023/06/28 00:22:29;;;;;;;14.55;3.53;;;;;;;20.70;56.55;101456.81;5074748;28;20670;-69
2023/06/28 00:24:58;;;;;;;10.88;3.58;;;;;;;21.23;56.01;101449.66;5063407;28;20053;-70
2023/06/28 00:27:29;;;;;;;11.88;3.40;;;;;;;21.51;52.13;101452.25;5073643;28;20381;-67
2023/06/28 00:29:57;;;;;;;10.70;3.20;;;;;;;21.89;53.94;101446.63;5056876;28;20051;-67
2023/06/28 00:32:25;;;;;;;16.13;3.72;;;;;;;22.17;52.31;101450.75;5054615;28;20044;-69
2023/06/28 00:34:53;;;;;;;21.10;3.97;;;;;;;22.12;53.00;101451.03;5062811;28;20048;-68
2023/06/28 00:37:20;;;;;;;15.40;4.07;;;;;;;22.53;52.02;101443.75;5066449;28;20131;-69
2023/06/28 00:39:49;;;;;;;11.75;2.90;;;;;;;21.84;51.51;101449.72;5037321;28;20068;-68
2023/06/28 00:42:16;;;;;;;10.77;3.35;;;;;;;22.14;53.19;101453.50;5053248;28;20504;-67
2023/06/28 00:44:43;;;;;;;9.85;2.85;;;;;;;22.01;51.85;101450.06;5062668;28;20049;-70
2023/06/28 00:47:11;;;;;;;9.82;3.90;;;;;;;21.29;55.23;101450.19;5067337;28;20049;-68
2023/06/28 00:49:39;;;;;;;10.15;3.08;;;;;;;20.67;54.59;101445.53;5073557;28;20037;-70
2023/06/28 00:52:07;;;;;;;8.98;3.15;;;;;;;20.19;58.20;101454.31;5055013;28;20500;-68
2023/06/28 00:54:34;;;;;;;10.70;3.65;;;;;;;20.32;54.98;101445.47;5072046;28;20044;-69
2023/06/28 00:57:05;;;;;;;10.00;3.80;;;;;;;20.62;56.85;101443.00;5071212;28;20052;-68
2023/06/28 00:59:32;;;;;;;9.45;3.80;;;;;;;20.85;53.52;101438.38;5067441;28;20406;-68
2023/06/28 01:02:00;;;;;;;13.77;4.80;;;;;;;20.59;57.30;101444.53;5094075;28;20059;-68
2023/06/28 01:04:27;;;;;;;18.98;5.75;;;;;;;20.67;55.04;101437.94;5093571;28;20048;-69
2023/06/28 01:06:55;;;;;;;11.27;4.55;;;;;;;21.30;56.04;101443.38;5074243;28;20048;-68
2023/06/28 01:09:24;;;;;;;11.15;4.78;;;;;;;21.13;53.10;101437.03;5053130;28;20467;-67
2023/06/28 01:11:52;;;;;;;16.27;4.78;;;;;;;21.53;53.43;101436.66;5053965;28;20053;-68
2023/06/28 01:14:20;;;;;;;12.00;4.63;;;;;;;20.90;53.49;101435.28;5045278;28;20045;-68
2023/06/28 01:16:54;;;;;;;12.63;4.20;;;;;;;21.17;53.71;101437.91;5035678;28;20053;-69
2023/06/28 01:19:23;;;;;;;12.20;3.97;;;;;;;21.03;57.21;101429.22;5056530;28;20045;-68
2023/06/28 01:21:57;;;;;;;10.45;3.95;;;;;;;21.73;55.10;101424.25;5054005;28;20508;-67
2023/06/28 01:24:25;;;;;;;17.85;4.40;;;;;;;21.97;53.97;101437.13;5068556;28;20395;-67
2023/06/28 01:26:54;;;;;;;12.02;4.10;;;;;;;22.16;53.40;101434.28;5073661;28;20044;-68
2023/06/28 01:29:23;;;;;;;11.68;4.53;;;;;;;22.60;51.51;101438.28;5073211;28;20059;-68
2023/06/28 01:31:55;;;;;;;9.73;3.47;;;;;;;22.80;50.75;101436.16;5063117;28;20048;-68
2023/06/28 01:34:24;;;;;;;10.15;3.85;;;;;;;22.60;51.70;101434.66;5068848;28;20045;-68
2023/06/28 01:36:53;;;;;;;13.03;3.60;;;;;;;21.88;52.78;101428.19;5064458;28;20056;-69
2023/06/28 01:39:21;;;;;;;12.57;3.38;;;;;;;21.08;52.56;101428.09;5022555;28;20056;-68
2023/06/28 01:41:51;;;;;;;11.55;3.72;;;;;;;21.59;54.08;101440.78;5054057;28;20048;-69
2023/06/28 01:44:18;;;;;;;10.23;3.83;;;;;;;21.40;55.08;101437.19;5052170;28;20408;-68
2023/06/28 01:46:46;;;;;;;10.75;3.58;;;;;;;21.63;54.42;101430.47;5085153;28;20052;-68
2023/06/28 01:49:13;;;;;;;10.32;4.10;;;;;;;21.31;54.31;101433.78;5073970;28;20048;-69
2023/06/28 01:51:41;;;;;;;11.75;4.97;;;;;;;21.02;55.56;101435.19;5037845;28;20044;-68
2023/06/28 01:54:08;;;;;;;16.00;5.63;;;;;;;20.06;54.62;101434.78;5073951;28;20726;-67
2023/06/28 01:56:35;;;;;;;14.38;5.57;;;;;;;19.65;56.46;101442.84;5066493;28;20052;-67
2023/06/28 01:59:02;;;;;;;15.10;5.60;;;;;;;19.51;57.63;101434.06;5055578;28;20051;-67
2023/06/28 02:01:30;;;;;;;12.38;5.25;;;;;;;19.69;61.15;101432.56;5092628;28;20055;-68
2023/06/28 02:03:58;;;;;;;11.07;4.63;;;;;;;20.04;55.43;101423.16;5093948;28;20063;-69
2023/06/28 02:06:25;;;;;;;11.50;4.25;;;;;;;19.85;59.08;101427.81;5065390;28;20045;-67
2023/06/28 02:08:53;;;;;;;12.55;4.10;;;;;;;20.17;54.91;101419.09;5052033;28;20041;-67
2023/06/28 02:11:20;;;;;;;12.65;4.20;;;;;;;20.01;59.41;101431.44;5052552;28;20068;-68
2023/06/28 02:13:47;;;;;;;9.55;3.45;;;;;;;20.98;56.56;101420.25;5034109;28;20060;-69
2023/06/28 02:16:15;;;;;;;11.30;4.22;;;;;;;20.87;55.51;101419.22;5052233;28;20072;-63
2023/06/28 02:18:45;;;;;;;15.25;3.55;;;;;;;21.00;54.80;101415.94;5064159;28;20052;-63
2023/06/28 02:21:14;;;;;;;;;;;;;;;21.80;54.16;101415.19;5057948;28;20122;-67
2023/06/28 02:23:41;;;;;;;9.15;4.05;;;;;;;20.85;55.76;101415.97;5069406;28;19920;-68
2023/06/28 02:26:09;;;;;;;14.05;3.90;;;;;;;21.82;54.23;101413.66;5070774;28;20056;-67
2023/06/28 02:28:38;;;;;;;9.65;3.78;;;;;;;22.46;52.19;101406.31;5037948;28;20048;-62
2023/06/28 02:31:07;;;;;;;9.07;3.83;;;;;;;22.32;52.42;101406.88;5070724;28;20040;-67
2023/06/28 02:33:34;;;;;;;12.25;3.90;;;;;;;21.73;52.89;101409.41;5065801;28;20053;-68
2023/06/28 02:36:02;;;;;;;14.18;3.92;;;;;;;21.95;52.90;101415.06;5063290;28;20056;-67
2023/06/28 02:38:29;;;;;;;11.25;3.83;;;;;;;21.50;51.08;101406.56;5060763;28;20048;-67
2023/06/28 02:40:57;;;;;;;9.43;2.90;;;;;;;21.45;54.17;101408.84;5055294;28;20574;-68
2023/06/28 02:43:24;;;;;;;9.77;3.47;;;;;;;21.05;55.46;101407.25;5080664;28;20044;-67
2023/06/28 02:45:52;;;;;;;10.77;3.45;;;;;;;21.06;56.47;101405.25;5072544;28;20051;-63
2023/06/28 02:48:20;;;;;;;8.90;2.83;;;;;;;21.76;54.79;101403.88;5063018;28;20051;-62
2023/06/28 02:50:47;;;;;;;9.00;3.70;;;;;;;22.00;53.74;101406.34;5072579;28;20051;-63
2023/06/28 02:53:16;;;;;;;9.18;3.10;;;;;;;22.38;51.86;101398.97;5051972;28;20052;-62
2023/06/28 02:55:43;;;;;;;12.45;4.10;;;;;;;22.37;50.88;101403.75;5070558;28;20067;-62
2023/06/28 02:58:13;;;;;;;10.05;3.65;;;;;;;21.85;51.16;101406.47;5053542;28;20199;-62
2023/06/28 03:00:41;;;;;;;11.05;3.63;;;;;;;22.21;51.90;101398.28;5076284;28;20054;-63
2023/06/28 03:03:09;;;;;;;9.93;4.07;;;;;;;22.50;51.37;101399.56;5054867;28;20051;-63
2023/06/28 03:05:39;;;;;;;9.18;4.32;;;;;;;22.37;51.10;101400.16;5069484;28;20060;-65
2023/06/28 03:08:07;;;;;;;11.52;3.65;;;;;;;21.91;49.68;101408.59;5072416;28;20410;-62
2023/06/28 03:10:35;;;;;;;13.77;3.85;;;;;;;22.05;52.58;101405.25;5071401;28;20060;-62
2023/06/28 03:13:03;;;;;;;10.13;3.85;;;;;;;22.37;52.30;101408.59;5073114;28;20385;-62
2023/06/28 03:15:31;;;;;;;11.27;3.85;;;;;;;22.24;51.75;101397.56;5070209;28;20048;-62
2023/06/28 03:17:58;;;;;;;10.73;3.92;;;;;;;22.37;51.53;101400.16;5069325;28;20052;-62
2023/06/28 03:20:27;;;;;;;10.00;4.28;;;;;;;22.32;52.11;101401.28;5063228;28;20053;-62
2023/06/28 03:22:56;;;;;;;14.48;5.68;;;;;;;21.29;52.21;101405.34;5070584;28;20523;-62
2023/06/28 03:25:23;;;;;;;12.20;4.55;;;;;;;21.47;56.09;101404.50;5059398;28;20056;-63
2023/06/28 03:27:51;;;;;;;12.05;5.82;;;;;;;21.44;53.58;101407.25;5053243;28;20055;-63
2023/06/28 03:30:18;;;;;;;12.63;5.65;;;;;;;21.23;55.04;101402.81;5070807;28;20073;-63
2023/06/28 03:32:46;;;;;;;18.77;6.55;;;;;;;20.77;54.89;101402.97;5071323;28;20072;-62
2023/06/28 03:35:13;;;;;;;17.00;7.07;;;;;;;20.57;57.55;101406.91;5064581;28;20053;-65
2023/06/28 03:37:54;;;;;;;11.93;5.63;;;;;;;20.66;57.87;101401.91;5050283;28;20044;-63
2023/06/28 03:40:22;;;;;;;16.95;7.07;;;;;;;19.87;55.79;101417.09;5035718;28;20053;-64
2023/06/28 03:42:50;;;;;;;15.35;6.63;;;;;;;19.46;58.57;101407.16;5061674;28;20055;-64
2023/06/28 03:45:17;;;;;;;13.52;5.70;;;;;;;20.67;58.77;101398.75;5073672;28;20531;-63
2023/06/28 03:47:47;;;;;;;13.10;5.70;;;;;;;21.54;55.35;101396.25;5052579;28;20055;-63
2023/06/28 03:50:15;;;;;;;15.13;6.53;;;;;;;21.48;53.11;101406.13;5038371;28;20052;-63
2023/06/28 03:52:43;;;;;;;17.63;5.75;;;;;;;20.47;55.24;101404.66;5061404;28;20052;-63
2023/06/28 03:55:11;;;;;;;14.23;6.50;;;;;;;19.82;57.94;101404.16;5068437;28;20052;-63
2023/06/28 03:57:39;;;;;;;14.02;5.93;;;;;;;20.62;58.65;101403.81;5063661;28;20048;-63
2023/06/28 04:00:09;;;;;;;18.25;5.93;;;;;;;19.15;60.44;101411.78;5079563;28;20059;-63
2023/06/28 04:02:40;;;;;;;15.40;5.65;;;;;;;19.66;60.99;101408.13;5053126;28;20062;-63
2023/06/28 04:05:08;;;;;;;12.82;5.18;;;;;;;20.50;59.55;101401.94;5055685;28;20079;-63
2023/06/28 04:07:35;;;;;;;13.15;5.60;;;;;;;20.32;57.13;101403.50;5064047;28;20545;-63
2023/06/28 04:10:04;;;;;;;10.13;4.97;;;;;;;20.42;59.33;101410.50;5053584;28;20408;-62
2023/06/28 04:12:31;;;;;;;16.15;5.85;;;;;;;20.45;56.88;101404.22;5068042;28;20061;-64
2023/06/28 04:15:01;;;;;;;12.55;5.53;;;;;;;20.33;58.43;101404.31;5054222;28;20049;-62
2023/06/28 04:17:28;;;;;;;15.57;5.45;;;;;;;21.01;57.58;101400.75;5064737;28;20056;-63
2023/06/28 04:19:57;;;;;;;15.98;5.97;;;;;;;21.39;55.95;101402.75;5054515;28;20045;-63
2023/06/28 04:22:24;;;;;;;13.65;5.70;;;;;;;21.09;53.93;101396.13;5070119;28;20056;-63
2023/06/28 04:24:51;;;;;;;12.38;5.13;;;;;;;20.33;58.61;101404.31;5074605;28;20059;-63
2023/06/28 04:27:19;;;;;;;15.88;5.70;;;;;;;20.86;57.41;101400.75;5076046;28;20063;-64
2023/06/28 04:29:46;;;;;;;13.40;6.47;;;;;;;21.38;55.35;101406.72;5065688;28;20037;-62
2023/06/28 04:32:25;;;;;;;14.38;5.57;;;;;;;22.09;54.02;101403.28;5053400;28;20044;-62
2023/06/28 04:34:53;;;;;;;18.35;5.50;;;;;;;22.12;53.61;101400.53;5068697;28;20057;-68
2023/06/28 04:37:21;;;;;;;13.13;5.70;;;;;;;22.14;53.17;101395.38;5071238;28;20052;-68
2023/06/28 04:39:49;;;;;;;14.85;4.95;;;;;;;22.03;52.81;101399.19;5061314;28;20048;-68
2023/06/28 04:42:16;;;;;;;11.10;3.70;;;;;;;21.92;53.93;101403.78;5055523;28;20489;-68
2023/06/28 04:44:46;;;;;;;8.98;3.85;;;;;;;22.40;52.77;101400.22;5067925;28;20044;-70
2023/06/28 04:47:17;;;;;;;9.98;4.13;;;;;;;22.47;52.17;101394.72;5069410;28;20045;-67
2023/06/28 04:49:49;;;;;;;8.93;3.85;;;;;;;22.41;52.09;101404.63;5067125;28;20488;-69
2023/06/28 04:52:18;;;;;;;14.82;3.72;;;;;;;22.41;52.40;101399.03;5054456;28;20668;-68
2023/06/28 04:54:47;;;;;;;10.77;4.35;;;;;;;22.41;51.39;101398.22;5054585;28;20053;-69
2023/06/28 04:57:16;;;;;;;10.18;3.72;;;;;;;21.67;52.80;101400.47;5060643;28;20060;-69
2023/06/28 04:59:43;;;;;;;14.00;3.88;;;;;;;22.02;51.92;101392.75;5043589;28;20057;-67
2023/06/28 05:02:11;;;;;;;9.50;3.83;;;;;;;22.30;51.79;101392.41;5068174;28;20059;-69
2023/06/28 05:04:39;;;;;;;11.18;3.80;;;;;;;22.31;51.77;101394.88;5075008;28;20158;-68
2023/06/28 05:07:09;;;;;;;9.07;3.45;;;;;;;22.57;50.57;101398.91;5071884;28;20052;-68
2023/06/28 05:09:38;;;;;;;10.10;3.20;;;;;;;22.44;50.30;101394.66;5056530;28;20523;-69
2023/06/28 05:12:06;;;;;;;9.60;3.40;;;;;;;22.44;48.69;101398.25;5068275;28;20041;-69
2023/06/28 05:14:33;;;;;;;7.35;3.25;;;;;;;22.27;50.47;101394.00;5054795;28;20057;-68
2023/06/28 05:17:01;;;;;;;7.28;2.75;;;;;;;22.41;48.98;101385.00;5069595;28;20045;-69
2023/06/28 05:19:28;;;;;;;9.40;2.95;;;;;;;21.58;47.73;101397.13;5062246;28;20052;-70
2023/06/28 05:21:55;;;;;;;10.30;3.33;;;;;;;20.58;51.73;101400.13;5054508;28;20045;-69
2023/06/28 05:24:23;;;;;;;10.07;3.00;;;;;;;20.78;53.14;101399.00;5053978;28;20611;-69
2023/06/28 05:26:50;;;;;;;10.80;2.80;;;;;;;20.83;53.12;101396.72;5063035;28;20550;-69
2023/06/28 05:29:19;;;;;;;9.85;2.65;;;;;;;21.33;53.09;101387.41;5054374;28;20057;-68
2023/06/28 05:31:47;;;;;;;9.52;2.63;;;;;;;20.83;50.94;101395.91;5061626;28;20724;-69
2023/06/28 05:34:14;;;;;;;11.55;3.22;;;;;;;20.72;49.93;101390.06;5066342;28;20052;-69
2023/06/28 05:36:42;;;;;;;10.10;3.05;;;;;;;21.31;51.92;101388.94;5056340;28;20060;-72
2023/06/28 05:39:10;;;;;;;8.40;2.72;;;;;;;20.17;50.10;101384.75;5052972;28;20052;-71
2023/06/28 05:41:39;;;;;;;12.02;3.08;;;;;;;21.47;53.04;101382.09;5063291;28;20048;-69
2023/06/28 05:44:07;;;;;;;12.05;3.50;;;;;;;21.58;50.75;101388.72;5087351;28;20060;-68
2023/06/28 05:46:34;;;;;;;10.73;3.92;;;;;;;21.61;52.42;101382.34;5065574;28;20064;-69
2023/06/28 05:49:07;;;;;;;8.30;2.97;;;;;;;21.97;51.72;101379.03;5069580;28;20047;-68
2023/06/28 05:51:36;;;;;;;12.35;4.22;;;;;;;22.61;50.02;101389.34;5072944;28;20055;-68
2023/06/28 05:54:04;;;;;;;13.57;4.00;;;;;;;22.62;50.12;101382.53;5073940;28;20032;-68
2023/06/28 05:56:32;;;;;;;16.20;4.75;;;;;;;23.03;49.52;101375.09;5070295;28;20048;-68
2023/06/28 05:58:59;;;;;;;12.48;3.60;;;;;;;22.94;46.73;101386.63;5071101;28;20040;-68
2023/06/28 06:01:27;;;;;;;8.88;3.38;;;;;;;21.75;53.05;101382.63;5071225;28;20043;-70
2023/06/28 06:03:55;;;;;;;9.98;3.85;;;;;;;22.59;51.53;101382.50;5075553;28;20044;-69
2023/06/28 06:06:22;;;;;;;11.75;3.88;;;;;;;23.09;50.22;101380.00;5075408;28;20150;-69
2023/06/28 06:08:50;;;;;;;9.70;3.30;;;;;;;22.92;51.11;101382.56;5066999;28;20057;-70
2023/06/28 06:11:17;;;;;;;11.20;4.18;;;;;;;22.65;51.97;101387.38;5049027;28;20059;-68
2023/06/28 06:13:44;;;;;;;11.18;3.60;;;;;;;22.30;54.00;101379.19;5070819;28;20059;-68
2023/06/28 06:16:12;;;;;;;12.38;3.88;;;;;;;22.99;52.35;101386.28;5061329;28;20061;-68
2023/06/28 06:18:41;;;;;;;11.93;3.80;;;;;;;22.11;52.00;101384.09;5075761;28;20044;-69
2023/06/28 06:21:12;;;;;;;8.93;3.15;;;;;;;21.22;54.57;101391.97;5073769;28;20037;-69
2023/06/28 06:23:42;;;;;;;12.88;3.95;;;;;;;21.95;63.04;101397.44;5058005;28;20052;-68
2023/06/28 06:26:09;;;;;;;11.77;3.75;;;;;;;22.50;61.59;101385.53;5054705;28;20052;-68
2023/06/28 06:28:37;;;;;;;12.98;3.97;;;;;;;22.69;58.44;101387.44;5056278;28;20432;-68
2023/06/28 06:31:04;;;;;;;13.68;4.00;;;;;;;22.97;59.42;101388.66;5061008;28;20044;-70
2023/06/28 06:33:32;;;;;;;15.57;4.00;;;;;;;23.05;54.78;101386.75;5053021;28;20044;-71
2023/06/28 06:35:59;;;;;;;12.45;3.90;;;;;;;22.41;51.05;101392.59;5055433;28;20152;-67
2023/06/28 06:38:28;;;;;;;9.40;3.40;;;;;;;21.46;53.02;101396.47;5061976;28;20053;-68
2023/06/28 06:40:55;;;;;;;12.75;3.67;;;;;;;21.81;nan;101388.78;5053907;28;20052;-68
2023/06/28 06:43:23;;;;;;;11.80;3.53;;;;;;;21.68;52.95;101392.91;5057225;28;20037;-67
2023/06/28 06:45:52;;;;;;;13.33;3.93;;;;;;;20.97;53.72;101401.81;5059023;28;20451;-69
2023/06/28 06:48:19;;;;;;;8.98;3.40;;;;;;;21.04;57.03;101390.81;5052871;28;20049;-69
2023/06/28 06:50:47;;;;;;;10.70;3.25;;;;;;;21.30;54.22;101396.56;5056911;28;20048;-67
2023/06/28 06:53:14;;;;;;;9.30;3.35;;;;;;;22.35;56.92;101381.69;5058624;28;20040;-67
2023/06/28 06:55:42;;;;;;;12.63;3.30;;;;;;;22.75;53.38;101391.56;5054906;28;20056;-66
2023/06/28 06:58:09;;;;;;;11.63;3.88;;;;;;;22.17;51.09;101396.63;5056916;28;20049;-62
2023/06/28 07:00:37;;;;;;;12.23;3.63;;;;;;;22.04;51.77;101401.63;5053480;28;20488;-62
2023/06/28 07:03:04;;;;;;;12.77;3.83;;;;;;;22.27;51.52;101398.78;5061137;28;20041;-64
2023/06/28 07:05:32;;;;;;;16.02;3.97;;;;;;;22.23;51.69;101395.09;5055344;28;20048;-61
2023/06/28 07:07:59;;;;;;;14.57;3.50;;;;;;;22.30;50.94;101389.63;5055391;28;20049;-62
2023/06/28 07:10:28;;;;;;;13.68;4.32;;;;;;;21.55;53.27;101400.66;5060589;28;20067;-62
2023/06/28 07:12:56;;;;;;;12.48;4.57;;;;;;;21.84;52.65;101399.25;5046967;28;20133;-63
2023/06/28 07:15:24;;;;;;;13.80;4.18;;;;;;;21.91;52.13;101403.00;5052512;28;20060;-62
2023/06/28 07:17:53;;;;;;;14.07;4.10;;;;;;;21.86;52.42;101397.66;5056107;28;20032;-63
2023/06/28 07:20:21;;;;;;;11.55;4.05;;;;;;;21.54;53.35;101404.66;5055481;28;20068;-63
2023/06/28 07:22:48;;;;;;;13.85;4.22;;;;;;;21.42;53.63;101406.78;5057953;28;20162;-64
2023/06/28 07:25:15;;;;;;;13.82;4.65;;;;;;;20.07;58.28;101411.22;5049697;28;20053;-63
2023/06/28 07:27:43;;;;;;;13.13;4.50;;;;;;;20.17;58.72;101405.13;5060222;28;20052;-62
2023/06/28 07:30:10;;;;;;;14.15;4.55;;;;;;;21.44;55.44;101410.88;5051678;28;20083;-62
2023/06/28 07:32:37;;;;;;;15.85;4.53;;;;;;;22.04;52.78;101407.22;5052450;28;20108;-63
2023/06/28 07:35:05;;;;;;;11.13;3.67;;;;;;;22.20;51.98;101404.28;5057945;28;20045;-64
2023/06/28 07:37:33;;;;;;;13.07;3.90;;;;;;;22.24;51.70;101411.59;5057674;28;20056;-62
2023/06/28 07:40:00;;;;;;;12.48;4.30;;;;;;;22.50;50.86;101415.59;5056548;28;20561;-64
2023/06/28 07:42:27;;;;;;;11.70;4.50;;;;;;;23.06;50.18;101413.66;5066233;28;20040;-63
2023/06/28 07:44:55;;;;;;;12.38;4.18;;;;;;;22.99;49.82;101407.94;5060656;28;20044;-63
2023/06/28 07:47:22;;;;;;;15.88;4.30;;;;;;;23.18;49.23;101402.19;5069617;28;20067;-63
2023/06/28 07:49:50;;;;;;;10.13;3.97;;;;;;;23.22;49.30;101406.66;5057535;28;20055;-64
2023/06/28 07:52:17;;;;;;;14.80;4.20;;;;;;;23.77;47.68;101399.28;5065327;28;20052;-62
2023/06/28 07:54:44;;;;;;;20.55;4.35;;;;;;;23.47;47.98;101395.72;5063783;28;20174;-62
2023/06/28 07:57:12;;;;;;;21.95;5.32;;;;;;;23.58;47.97;101396.69;5064003;28;20543;-63
2023/06/28 07:59:40;;;;;;;13.20;4.50;;;;;;;23.77;47.30;101388.03;5068371;28;20071;-62
2023/06/28 08:02:07;;;;;;;17.75;4.43;;;;;;;23.90;46.92;101389.34;5053184;28;20049;-62
2023/06/28 08:04:35;;;;;;;18.10;4.28;;;;;;;23.18;48.91;101388.13;5061127;28;20048;-64
2023/06/28 08:07:06;;;;;;;13.73;4.07;;;;;;;23.59;47.50;101394.69;5060182;28;20053;-64
2023/06/28 08:09:33;;;;;;;15.52;4.30;;;;;;;23.39;47.52;101392.06;5061414;28;20057;-63
2023/06/28 08:12:00;;;;;;;12.80;4.20;;;;;;;23.41;47.27;101386.03;5063571;28;20034;-63
2023/06/28 08:14:28;;;;;;;12.93;4.40;;;;;;;22.72;49.14;101390.31;5058225;28;20044;-61
2023/06/28 08:16:55;;;;;;;13.80;4.80;;;;;;;23.16;48.75;101394.13;5060620;28;20468;-62
2023/06/28 08:19:23;;;;;;;10.18;4.35;;;;;;;23.00;48.84;101393.50;5053754;28;20155;-62
2023/06/28 08:21:50;;;;;;;14.98;4.53;;;;;;;23.18;48.25;101388.94;5058004;28;20048;-62
2023/06/28 08:24:17;;;;;;;9.75;4.28;;;;;;;23.48;47.44;101391.75;5058703;28;20699;-62
2023/06/28 08:26:45;;;;;;;13.07;4.40;;;;;;;23.17;48.10;101394.94;5052801;28;20040;-62
2023/06/28 08:29:15;;;;;;;13.60;4.68;;;;;;;23.51;47.45;101390.97;5056030;28;20048;-64
2023/06/28 08:31:43;;;;;;;11.25;4.35;;;;;;;23.04;48.06;101391.56;5058502;28;20041;-63
2023/06/28 08:34:10;;;;;;;11.60;4.60;;;;;;;22.85;49.05;101390.91;5057481;28;20055;-63
2023/06/28 08:36:37;;;;;;;13.57;4.32;;;;;;;23.08;48.67;101386.78;5067563;28;20041;-64
2023/06/28 08:39:05;;;;;;;15.18;4.40;;;;;;;23.04;48.22;101382.31;5053631;28;20513;-63
2023/06/28 08:41:33;;;;;;;15.93;5.28;;;;;;;23.07;48.04;101368.31;5053666;28;20045;-64
2023/06/28 08:44:04;;;;;;;13.13;4.72;;;;;;;23.37;47.42;101376.75;5045848;28;20049;-62
2023/06/28 08:46:31;;;;;;;11.98;5.07;;;;;;;23.79;46.75;101379.22;5058162;28;20087;-62
2023/06/28 08:48:59;;;;;;;17.83;4.45;;;;;;;23.22;47.79;101370.09;5054411;28;20060;-62
2023/06/28 08:51:26;;;;;;;12.07;4.10;;;;;;;22.60;49.23;101378.47;5065651;28;20056;-63
2023/06/28 08:53:54;;;;;;;11.73;5.22;;;;;;;21.92;50.97;101370.13;5062219;28;20048;-61
2023/06/28 08:56:22;;;;;;;12.60;4.25;;;;;;;22.50;50.14;101376.28;5069142;28;20067;-63
2023/06/28 08:58:51;;;;;;;10.02;4.70;;;;;;;22.98;48.29;101372.63;5064977;28;20048;-63
2023/06/28 09:01:22;;;;;;;10.05;4.10;;;;;;;23.28;47.12;101373.41;5069811;28;20069;-63
2023/06/28 09:03:49;;;;;;;9.30;4.35;;;;;;;23.28;46.86;101376.22;5070565;28;20040;-63
2023/06/28 09:06:17;;;;;;;11.32;4.35;;;;;;;23.43;46.19;101375.22;5062190;28;20037;-63
2023/06/28 09:08:44;;;;;;;10.60;4.45;;;;;;;23.38;46.71;101369.91;5062653;28;20522;-62
2023/06/28 09:11:12;;;;;;;12.10;4.82;;;;;;;22.78;47.63;101376.75;5060484;28;20057;-63
2023/06/28 09:13:39;;;;;;;13.48;4.80;;;;;;;22.44;47.76;101375.00;5062399;28;20060;-62
2023/06/28 09:16:10;;;;;;;10.05;4.75;;;;;;;22.65;48.05;101376.16;5058173;28;20060;-63
2023/06/28 09:18:37;;;;;;;8.57;4.38;;;;;;;22.69;48.34;101381.81;5059385;28;20048;-62
2023/06/28 09:21:05;;;;;;;12.68;5.43;;;;;;;22.12;50.58;101369.66;5056890;28;20052;-62
2023/06/28 09:23:33;;;;;;;15.38;4.88;;;;;;;22.78;48.65;101369.13;5065936;28;20435;-62
2023/06/28 09:26:01;;;;;;;17.27;5.80;;;;;;;22.02;50.31;101375.91;5054010;28;20048;-63
2023/06/28 09:28:35;;;;;;;12.35;5.88;;;;;;;21.95;51.38;101369.41;5055910;28;20048;-61
2023/06/28 09:31:06;;;;;;;16.63;6.15;;;;;;;22.26;50.38;101364.28;5041741;28;20056;-63
2023/06/28 09:33:34;;;;;;;12.70;5.70;;;;;;;22.74;49.03;101361.84;5061775;28;20451;-62
2023/06/28 09:36:04;;;;;;;13.40;5.13;;;;;;;23.04;48.16;101359.84;5057839;28;20064;-61
2023/06/28 09:38:33;;;;;;;11.77;5.25;;;;;;;23.16;47.71;101356.78;5058253;28;20060;-61
2023/06/28 09:41:01;;;;;;;14.52;6.38;;;;;;;23.22;47.43;101356.03;5056265;28;20049;-62
2023/06/28 09:43:33;;;;;;;13.02;7.10;;;;;;;23.42;47.09;101356.72;5060003;28;20135;-63
2023/06/28 09:46:12;;;;;;;16.23;7.80;;;;;;;23.09;47.10;101351.06;5060820;28;20052;-62
2023/06/28 09:48:45;;;;;;;15.65;7.60;;;;;;;22.95;47.99;101348.91;5058903;28;20041;-62
2023/06/28 09:51:15;;;;;;;17.30;8.63;;;;;;;22.94;47.78;101350.09;5049823;28;20052;-61
2023/06/28 09:53:50;;;;;;;17.80;9.60;;;;;;;22.98;47.12;101336.88;5054781;28;20044;-63
2023/06/28 09:56:17;;;;;;;13.73;7.78;;;;;;;22.77;48.22;101344.25;5065435;28;20063;-62
2023/06/28 09:58:49;;;;;;;13.27;7.05;;;;;;;22.37;49.60;101344.81;5060228;28;20048;-63
2023/06/28 10:01:17;;;;;;;13.45;7.00;;;;;;;22.30;50.23;101341.91;5058097;28;20488;-63
2023/06/28 10:03:44;;;;;;;14.27;7.13;;;;;;;22.67;49.71;101342.88;5051194;28;20053;-62
2023/06/28 10:06:13;;;;;;;24.88;8.85;;;;;;;22.77;48.95;101330.19;5049320;28;20052;-62
2023/06/28 10:08:41;;;;;;;12.75;7.68;;;;;;;23.26;48.68;101323.16;5057999;28;20044;-65
2023/06/28 10:11:13;;;;;;;13.48;7.85;;;;;;;23.48;47.73;101326.25;5056976;28;20512;-64
2023/06/28 10:13:41;;;;;;;15.48;7.85;;;;;;;23.28;47.51;101323.63;5069010;28;20056;-62
2023/06/28 10:16:19;;;;;;;13.80;8.05;;;;;;;23.35;48.11;101323.72;5054796;28;20056;-63
2023/06/28 10:18:46;;;;;;;17.08;8.48;;;;;;;23.86;46.79;101308.94;5069992;28;20054;-62
2023/06/28 10:21:14;;;;;;;14.00;7.88;;;;;;;24.40;45.79;101315.41;5053467;28;20055;-63
2023/06/28 10:23:41;;;;;;;12.57;7.88;;;;;;;24.44;45.32;101304.97;5054695;28;20052;-65
2023/06/28 10:26:12;;;;;;;17.70;9.65;;;;;;;23.50;46.95;101321.88;5038964;28;20057;-63
2023/06/28 10:28:40;;;;;;;14.23;8.70;;;;;;;22.87;48.93;101321.09;5061348;28;20538;-63
2023/06/28 10:31:07;;;;;;;15.15;8.55;;;;;;;23.23;48.38;101309.06;5051672;28;20057;-68
2023/06/28 10:33:38;;;;;;;15.35;9.23;;;;;;;23.38;48.51;101314.50;5049982;28;20049;-68
2023/06/28 10:36:06;;;;;;;19.17;10.95;;;;;;;23.59;47.38;101313.91;5060187;28;20647;-69
2023/06/28 10:38:37;;;;;;;17.67;10.05;;;;;;;23.51;47.55;101317.84;5054623;28;20056;-69
2023/06/28 10:41:05;;;;;;;16.42;11.27;;;;;;;23.36;48.08;101316.88;5054003;28;20049;-71
2023/06/28 10:43:33;;;;;;;21.73;12.55;;;;;;;23.56;47.74;101306.25;5056127;28;20045;-70
2023/06/28 10:46:00;;;;;;;19.00;11.90;;;;;;;23.52;47.60;101310.22;5056942;28;20060;-68
2023/06/28 10:48:28;;;;;;;17.02;11.57;;;;;;;23.83;47.74;101304.91;5056313;28;20041;-72
2023/06/28 10:51:05;;;;;;;17.67;11.82;;;;;;;24.06;46.73;101299.88;5054699;28;20075;-68
2023/06/28 10:53:33;;;;;;;17.13;12.15;;;;;;;24.20;46.91;101291.53;5055282;28;20662;-71
2023/06/28 10:56:07;;;;;;;18.08;11.77;;;;;;;24.12;46.79;101303.97;5051970;28;20044;-70
2023/06/28 10:58:37;;;;;;;20.30;12.02;;;;;;;23.87;46.88;101294.47;5059446;28;20053;-71
2023/06/28 11:01:08;;;;;;;22.65;13.40;;;;;;;24.25;46.61;101296.00;5056726;28;20723;-72
2023/06/28 11:03:43;;;;;;;20.00;11.40;;;;;;;24.31;46.33;101297.25;5055950;28;20056;-70
2023/06/28 11:06:11;;;;;;;18.45;12.10;;;;;;;24.34;46.28;101288.81;5052369;28;20489;-70
2023/06/28 11:08:43;;;;;;;19.52;12.02;;;;;;;24.41;45.58;101294.50;5055460;28;20053;-70
2023/06/28 11:11:34;;;;;;;18.77;11.40;;;;;;;24.45;45.62;101297.34;5053577;28;20053;-72
2023/06/28 11:14:25;;;;;;;15.63;10.35;;;;;;;24.45;45.94;101295.34;5053931;28;20055;-71
2023/06/28 11:16:53;;;;;;;;;;;;;;;24.66;45.27;101283.38;5053706;28;20051;-69
2023/06/28 11:19:24;;;;;;;19.58;11.10;;;;;;;24.62;45.01;101278.94;5033309;28;19921;-71
2023/06/28 11:21:56;;;;;;;18.73;11.30;;;;;;;24.99;44.79;101273.84;5055510;28;20048;-69
2023/06/28 11:24:33;;;;;;;15.55;10.75;;;;;;;25.08;43.81;101277.13;5055028;28;20041;-70